KAXN/AXN METAR and TAF weather

Enter ICAO airport designator
Station Type Date Time Source
KAXN METAR 2018/12/12 17:25 UTC NOAA

KAXN 121725Z AUTO 16007KT 1 1/4SM HZ OVC002 M04/M07 A2974 RMK AO2 T10441072


Station Type Date Time Source
KAXN Decoded METAR 2018/12/12 17:25 UTC NOAA

CHANDLER FIELD, MN, United States (KAXN) 45-52N 095-24W 433M
Dec 12, 2018 - 12:25 PM EST / 2018.12.12 1725 UTC
Wind: from the SSE (160 degrees) at 8 MPH (7 KT):0
Visibility: 1 1/4 mile(s):0
Sky conditions: overcast
Weather: haze
Temperature: 24.1 F (-4.4 C)
Windchill: 15 F (-9 C):1
Dew Point: 19.0 F (-7.2 C)
Relative Humidity: 80%
Pressure (altimeter): 29.74 in. Hg (1007 hPa)
ob: KAXN 121725Z AUTO 16007KT 1 1/4SM HZ OVC002 M04/M07 A2974 RMK AO2 T10441072
cycle: 17

Station Type Date Time Source
KAXN TAF 2018/12/12 18:36 UTC NOAA

TAF KAXN 121733Z 1218/1318 16006KT 1SM BR OVC002
FM122200 16007KT 3SM BR OVC004
FM130300 18007KT 1SM BR VCSH OVC003
FM130700 16006KT 1/2SM FZFG VV002
TEMPO 1307/1311 1/4SM FZFG VV001
FM131400 27007KT 1SM -SN BR OVC003


Example: see airport list